This is the latest recevied weather packets stored in our database for station/object ANJALA. If no packets are shown the sender has not sent any weather packets the latest 10 day(s).
| Time | Temp. | Humidity | Pressure | Rain* | Wind** | Luminosity | Snow |
|---|---|---|---|---|---|---|---|
| 1777814825 | 15.56° C | 51% | - | 0 mm | - | - | - |
| 1777813625 | 15.56° C | 53% | - | 0 mm | - | - | - |
| 1777812425 | 15.56° C | 53% | - | 0 mm | - | - | - |
| 1777811225 | 15.56° C | 54% | - | 0 mm | - | - | - |
| 1777810025 | 15.56° C | 54% | - | 0 mm | - | - | - |
| 1777808825 | 16.67° C | 51% | - | 0 mm | - | - | - |
| 1777807625 | 16.11° C | 52% | - | 0 mm | - | - | - |
| 1777806425 | 15° C | 54% | - | 0 mm | - | - | - |
| 1777805230 | 15° C | 54% | - | 0 mm | - | - | - |
| 1777804025 | 14.44° C | 54% | - | 0 mm | - | - | - |
| 1777802825 | 14.44° C | 55% | - | 0 mm | - | - | - |
| 1777801625 | 13.89° C | 56% | - | 0 mm | - | - | - |
| 1777800425 | 13.89° C | 57% | - | 0 mm | - | - | - |
| 1777799225 | 13.33° C | 58% | - | 0 mm | - | - | - |
| 1777798025 | 12.78° C | 59% | - | 0 mm | - | - | - |
| 1777796824 | 12.78° C | 60% | - | 0 mm | - | - | - |
| 1777795624 | 12.22° C | 63% | - | 0 mm | - | - | - |
| 1777794424 | 11.67° C | 68% | - | 0 mm | - | - | - |
| 1777793224 | 11.67° C | 65% | - | 0 mm | - | - | - |
| 1777792024 | 11.67° C | 64% | - | 0 mm | - | - | - |
| 1777790824 | 11.11° C | 65% | - | 0 mm | - | - | - |
| 1777789624 | 10.56° C | 68% | - | 0 mm | - | - | - |
| 1777788424 | 10° C | 72% | - | 0 mm | - | - | - |
| 1777787224 | 8.89° C | 74% | - | 0 mm | - | - | - |
| 1777786024 | 8.33° C | 78% | - | 0 mm | - | - | - |
* Rain latest hour (hover to see other rain measurements)
** Current wind speed in m/s (hover to see current wind gust speed)